sensor_id;sensor_type;location;lat;lon;timestamp;temperature;humidity
48836;DHT22;62581;47.342;7.908;2023-08-08T00:01:26;12.30;99.90
48836;DHT22;62581;47.342;7.908;2023-08-08T00:03:53;12.30;99.90
48836;DHT22;62581;47.342;7.908;2023-08-08T00:06:19;12.30;99.90
48836;DHT22;62581;47.342;7.908;2023-08-08T00:08:46;12.30;99.90
48836;DHT22;62581;47.342;7.908;2023-08-08T00:11:13;12.20;99.90
48836;DHT22;62581;47.342;7.908;2023-08-08T00:13:40;12.20;99.90
48836;DHT22;62581;47.342;7.908;2023-08-08T00:16:08;12.20;99.90
48836;DHT22;62581;47.342;7.908;2023-08-08T00:18:35;12.20;99.90
48836;DHT22;62581;47.342;7.908;2023-08-08T00:21:02;12.20;99.90
48836;DHT22;62581;47.342;7.908;2023-08-08T00:23:28;12.20;99.90
48836;DHT22;62581;47.342;7.908;2023-08-08T00:25:55;12.10;99.90
48836;DHT22;62581;47.342;7.908;2023-08-08T00:28:22;12.10;99.90
48836;DHT22;62581;47.342;7.908;2023-08-08T00:30:49;12.10;99.90
48836;DHT22;62581;47.342;7.908;2023-08-08T00:33:20;12.10;99.90
48836;DHT22;62581;47.342;7.908;2023-08-08T00:35:47;12.10;99.90
48836;DHT22;62581;47.342;7.908;2023-08-08T00:38:14;12.00;99.90
48836;DHT22;62581;47.342;7.908;2023-08-08T00:40:41;12.00;99.90
48836;DHT22;62581;47.342;7.908;2023-08-08T00:43:08;11.90;99.90
48836;DHT22;62581;47.342;7.908;2023-08-08T00:45:35;11.90;99.90
48836;DHT22;62581;47.342;7.908;2023-08-08T00:48:02;11.90;99.90
48836;DHT22;62581;47.342;7.908;2023-08-08T00:50:30;11.90;99.90
48836;DHT22;62581;47.342;7.908;2023-08-08T00:52:57;11.90;99.90
48836;DHT22;62581;47.342;7.908;2023-08-08T00:55:24;11.90;99.90
48836;DHT22;62581;47.342;7.908;2023-08-08T00:57:51;11.80;99.90
48836;DHT22;62581;47.342;7.908;2023-08-08T01:00:18;11.80;99.90
48836;DHT22;62581;47.342;7.908;2023-08-08T01:02:44;11.80;99.90
48836;DHT22;62581;47.342;7.908;2023-08-08T01:05:11;11.80;99.90
48836;DHT22;62581;47.342;7.908;2023-08-08T01:07:41;11.80;99.90
48836;DHT22;62581;47.342;7.908;2023-08-08T01:10:09;11.70;99.90
48836;DHT22;62581;47.342;7.908;2023-08-08T01:12:37;11.70;99.90
48836;DHT22;62581;47.342;7.908;2023-08-08T01:15:05;11.70;99.90
48836;DHT22;62581;47.342;7.908;2023-08-08T01:17:33;11.70;99.90
48836;DHT22;62581;47.342;7.908;2023-08-08T01:20:01;11.80;99.90
48836;DHT22;62581;47.342;7.908;2023-08-08T01:22:29;11.80;99.90
48836;DHT22;62581;47.342;7.908;2023-08-08T01:25:00;11.80;99.90
48836;DHT22;62581;47.342;7.908;2023-08-08T01:27:27;11.80;99.90
48836;DHT22;62581;47.342;7.908;2023-08-08T01:29:54;11.80;99.90
48836;DHT22;62581;47.342;7.908;2023-08-08T01:32:20;11.80;99.90
48836;DHT22;62581;47.342;7.908;2023-08-08T01:34:47;11.80;99.90
48836;DHT22;62581;47.342;7.908;2023-08-08T01:37:15;11.80;99.90
48836;DHT22;62581;47.342;7.908;2023-08-08T01:39:44;11.80;99.90
48836;DHT22;62581;47.342;7.908;2023-08-08T01:42:14;11.80;99.90
48836;DHT22;62581;47.342;7.908;2023-08-08T01:44:42;11.80;99.90
48836;DHT22;62581;47.342;7.908;2023-08-08T01:47:09;11.70;99.90
48836;DHT22;62581;47.342;7.908;2023-08-08T01:49:35;11.70;99.90
48836;DHT22;62581;47.342;7.908;2023-08-08T01:52:02;11.70;99.90
48836;DHT22;62581;47.342;7.908;2023-08-08T01:54:30;11.60;99.90
48836;DHT22;62581;47.342;7.908;2023-08-08T01:56:57;11.70;99.90
48836;DHT22;62581;47.342;7.908;2023-08-08T01:59:25;11.70;99.90
48836;DHT22;62581;47.342;7.908;2023-08-08T02:01:52;11.70;99.90
48836;DHT22;62581;47.342;7.908;2023-08-08T02:04:19;11.70;99.90
48836;DHT22;62581;47.342;7.908;2023-08-08T02:06:46;11.70;99.90
48836;DHT22;62581;47.342;7.908;2023-08-08T02:09:12;11.80;99.90
48836;DHT22;62581;47.342;7.908;2023-08-08T02:11:40;11.80;99.90
48836;DHT22;62581;47.342;7.908;2023-08-08T02:14:07;11.80;99.90
48836;DHT22;62581;47.342;7.908;2023-08-08T02:16:35;11.70;99.90
48836;DHT22;62581;47.342;7.908;2023-08-08T02:19:02;11.80;99.90
48836;DHT22;62581;47.342;7.908;2023-08-08T02:21:29;11.80;99.90
48836;DHT22;62581;47.342;7.908;2023-08-08T02:23:56;11.80;99.90
48836;DHT22;62581;47.342;7.908;2023-08-08T02:26:22;11.80;99.90
48836;DHT22;62581;47.342;7.908;2023-08-08T02:28:49;11.80;99.90
48836;DHT22;62581;47.342;7.908;2023-08-08T02:31:16;11.80;99.90
48836;DHT22;62581;47.342;7.908;2023-08-08T02:33:48;11.70;99.90
48836;DHT22;62581;47.342;7.908;2023-08-08T02:36:15;11.70;99.90
48836;DHT22;62581;47.342;7.908;2023-08-08T02:38:42;11.70;99.90
48836;DHT22;62581;47.342;7.908;2023-08-08T02:41:09;11.70;99.90
48836;DHT22;62581;47.342;7.908;2023-08-08T02:43:36;11.70;99.90
48836;DHT22;62581;47.342;7.908;2023-08-08T02:46:03;11.70;99.90
48836;DHT22;62581;47.342;7.908;2023-08-08T02:48:30;11.60;99.90
48836;DHT22;62581;47.342;7.908;2023-08-08T02:50:58;11.60;99.90
48836;DHT22;62581;47.342;7.908;2023-08-08T02:53:25;11.60;99.90
48836;DHT22;62581;47.342;7.908;2023-08-08T02:55:51;11.60;99.90
48836;DHT22;62581;47.342;7.908;2023-08-08T02:58:18;11.70;99.90
48836;DHT22;62581;47.342;7.908;2023-08-08T03:00:45;11.70;99.90
48836;DHT22;62581;47.342;7.908;2023-08-08T03:03:12;11.70;99.90
48836;DHT22;62581;47.342;7.908;2023-08-08T03:05:39;11.60;99.90
48836;DHT22;62581;47.342;7.908;2023-08-08T03:08:07;11.60;99.90
48836;DHT22;62581;47.342;7.908;2023-08-08T03:10:34;11.60;99.90
48836;DHT22;62581;47.342;7.908;2023-08-08T03:13:01;11.60;99.90
48836;DHT22;62581;47.342;7.908;2023-08-08T03:15:28;11.60;99.90
48836;DHT22;62581;47.342;7.908;2023-08-08T03:17:54;11.50;99.90
48836;DHT22;62581;47.342;7.908;2023-08-08T03:20:21;11.60;99.90
48836;DHT22;62581;47.342;7.908;2023-08-08T03:22:48;11.60;99.90
48836;DHT22;62581;47.342;7.908;2023-08-08T03:25:16;11.50;99.90
48836;DHT22;62581;47.342;7.908;2023-08-08T03:27:43;11.50;99.90
48836;DHT22;62581;47.342;7.908;2023-08-08T03:30:10;11.50;99.90
48836;DHT22;62581;47.342;7.908;2023-08-08T03:32:37;11.50;99.90
48836;DHT22;62581;47.342;7.908;2023-08-08T03:35:04;11.50;99.90
48836;DHT22;62581;47.342;7.908;2023-08-08T03:37:31;11.40;99.90
48836;DHT22;62581;47.342;7.908;2023-08-08T03:39:58;11.40;99.90
48836;DHT22;62581;47.342;7.908;2023-08-08T03:42:26;11.40;99.90
48836;DHT22;62581;47.342;7.908;2023-08-08T03:44:53;11.40;99.90
48836;DHT22;62581;47.342;7.908;2023-08-08T03:47:19;11.30;99.90
48836;DHT22;62581;47.342;7.908;2023-08-08T03:49:47;11.30;99.90
48836;DHT22;62581;47.342;7.908;2023-08-08T03:52:14;11.20;99.90
48836;DHT22;62581;47.342;7.908;2023-08-08T03:54:41;11.20;99.90
48836;DHT22;62581;47.342;7.908;2023-08-08T03:57:07;11.20;99.90
48836;DHT22;62581;47.342;7.908;2023-08-08T03:59:35;11.20;99.90
48836;DHT22;62581;47.342;7.908;2023-08-08T04:02:02;11.20;99.90
48836;DHT22;62581;47.342;7.908;2023-08-08T04:04:29;11.10;99.90
48836;DHT22;62581;47.342;7.908;2023-08-08T04:06:56;11.20;99.90
48836;DHT22;62581;47.342;7.908;2023-08-08T04:09:23;11.20;99.90
48836;DHT22;62581;47.342;7.908;2023-08-08T04:11:50;11.10;99.90
48836;DHT22;62581;47.342;7.908;2023-08-08T04:14:16;11.10;99.90
48836;DHT22;62581;47.342;7.908;2023-08-08T04:16:44;11.20;99.90
48836;DHT22;62581;47.342;7.908;2023-08-08T04:19:11;11.10;99.90
48836;DHT22;62581;47.342;7.908;2023-08-08T04:21:38;11.10;99.90
48836;DHT22;62581;47.342;7.908;2023-08-08T04:24:05;11.10;99.90
48836;DHT22;62581;47.342;7.908;2023-08-08T04:26:33;11.10;99.90
48836;DHT22;62581;47.342;7.908;2023-08-08T04:28:59;11.10;99.90
48836;DHT22;62581;47.342;7.908;2023-08-08T04:31:26;11.10;99.90
48836;DHT22;62581;47.342;7.908;2023-08-08T04:33:55;11.00;99.90
48836;DHT22;62581;47.342;7.908;2023-08-08T04:36:25;11.10;99.90
48836;DHT22;62581;47.342;7.908;2023-08-08T04:38:52;11.10;99.90
48836;DHT22;62581;47.342;7.908;2023-08-08T04:41:19;11.10;99.90
48836;DHT22;62581;47.342;7.908;2023-08-08T04:43:45;11.20;99.90
48836;DHT22;62581;47.342;7.908;2023-08-08T04:46:12;11.20;99.90
48836;DHT22;62581;47.342;7.908;2023-08-08T04:48:39;11.30;99.90
48836;DHT22;62581;47.342;7.908;2023-08-08T04:51:07;11.30;99.90
48836;DHT22;62581;47.342;7.908;2023-08-08T04:53:34;11.40;99.90
48836;DHT22;62581;47.342;7.908;2023-08-08T04:56:01;11.50;99.90
48836;DHT22;62581;47.342;7.908;2023-08-08T04:58:28;11.50;99.90
48836;DHT22;62581;47.342;7.908;2023-08-08T05:00:54;11.60;99.90
48836;DHT22;62581;47.342;7.908;2023-08-08T05:03:21;11.60;99.90
48836;DHT22;62581;47.342;7.908;2023-08-08T05:05:48;11.60;99.90
48836;DHT22;62581;47.342;7.908;2023-08-08T05:08:16;11.70;99.90
48836;DHT22;62581;47.342;7.908;2023-08-08T05:10:43;11.80;99.90
48836;DHT22;62581;47.342;7.908;2023-08-08T05:13:09;11.80;99.90
48836;DHT22;62581;47.342;7.908;2023-08-08T05:15:37;11.80;99.90
48836;DHT22;62581;47.342;7.908;2023-08-08T05:18:04;11.80;99.90
48836;DHT22;62581;47.342;7.908;2023-08-08T05:20:30;11.90;99.90
48836;DHT22;62581;47.342;7.908;2023-08-08T05:22:57;11.90;99.90
48836;DHT22;62581;47.342;7.908;2023-08-08T05:25:25;12.00;99.90
48836;DHT22;62581;47.342;7.908;2023-08-08T05:27:52;12.10;99.90
48836;DHT22;62581;47.342;7.908;2023-08-08T05:30:19;12.20;99.90
48836;DHT22;62581;47.342;7.908;2023-08-08T05:32:45;12.20;99.90
48836;DHT22;62581;47.342;7.908;2023-08-08T05:35:12;12.30;99.90
48836;DHT22;62581;47.342;7.908;2023-08-08T05:37:39;12.30;99.90
48836;DHT22;62581;47.342;7.908;2023-08-08T05:40:06;12.40;99.90
48836;DHT22;62581;47.342;7.908;2023-08-08T05:42:34;12.50;99.90
48836;DHT22;62581;47.342;7.908;2023-08-08T05:45:01;12.50;99.90
48836;DHT22;62581;47.342;7.908;2023-08-08T05:47:28;12.60;99.90
48836;DHT22;62581;47.342;7.908;2023-08-08T05:49:55;12.60;99.90
48836;DHT22;62581;47.342;7.908;2023-08-08T05:52:22;12.70;99.90
48836;DHT22;62581;47.342;7.908;2023-08-08T05:54:49;12.80;99.90
48836;DHT22;62581;47.342;7.908;2023-08-08T05:57:15;12.80;99.90
48836;DHT22;62581;47.342;7.908;2023-08-08T05:59:43;12.80;99.90
48836;DHT22;62581;47.342;7.908;2023-08-08T06:02:10;12.90;99.90
48836;DHT22;62581;47.342;7.908;2023-08-08T06:04:37;12.90;99.90
48836;DHT22;62581;47.342;7.908;2023-08-08T06:07:04;13.00;99.90
48836;DHT22;62581;47.342;7.908;2023-08-08T06:09:31;13.00;99.90
48836;DHT22;62581;47.342;7.908;2023-08-08T06:11:58;13.10;99.90
48836;DHT22;62581;47.342;7.908;2023-08-08T06:14:24;13.10;99.90
48836;DHT22;62581;47.342;7.908;2023-08-08T06:16:52;13.10;99.90
48836;DHT22;62581;47.342;7.908;2023-08-08T06:19:19;13.20;99.90
48836;DHT22;62581;47.342;7.908;2023-08-08T06:21:46;13.20;99.90
48836;DHT22;62581;47.342;7.908;2023-08-08T06:24:14;13.20;99.90
48836;DHT22;62581;47.342;7.908;2023-08-08T06:26:41;13.30;99.90
48836;DHT22;62581;47.342;7.908;2023-08-08T06:29:07;13.30;99.90
48836;DHT22;62581;47.342;7.908;2023-08-08T06:31:34;13.40;99.90
48836;DHT22;62581;47.342;7.908;2023-08-08T06:34:02;13.50;99.90
48836;DHT22;62581;47.342;7.908;2023-08-08T06:36:29;13.50;99.90
48836;DHT22;62581;47.342;7.908;2023-08-08T06:38:55;13.60;99.90
48836;DHT22;62581;47.342;7.908;2023-08-08T06:41:22;13.70;99.90
48836;DHT22;62581;47.342;7.908;2023-08-08T06:43:49;13.70;99.90
48836;DHT22;62581;47.342;7.908;2023-08-08T06:46:16;13.80;99.90
48836;DHT22;62581;47.342;7.908;2023-08-08T06:48:46;13.80;99.90
48836;DHT22;62581;47.342;7.908;2023-08-08T06:51:14;13.80;99.90
48836;DHT22;62581;47.342;7.908;2023-08-08T06:53:41;14.00;99.90
48836;DHT22;62581;47.342;7.908;2023-08-08T06:56:08;14.10;99.90
48836;DHT22;62581;47.342;7.908;2023-08-08T06:58:34;14.10;99.90
48836;DHT22;62581;47.342;7.908;2023-08-08T07:01:02;14.10;99.90
48836;DHT22;62581;47.342;7.908;2023-08-08T07:03:28;14.30;99.90
48836;DHT22;62581;47.342;7.908;2023-08-08T07:05:55;14.40;99.90
48836;DHT22;62581;47.342;7.908;2023-08-08T07:08:23;14.50;99.90
48836;DHT22;62581;47.342;7.908;2023-08-08T07:10:50;14.50;99.90
48836;DHT22;62581;47.342;7.908;2023-08-08T07:13:17;14.60;99.90
48836;DHT22;62581;47.342;7.908;2023-08-08T07:15:43;14.70;99.90
48836;DHT22;62581;47.342;7.908;2023-08-08T07:18:10;14.70;99.90
48836;DHT22;62581;47.342;7.908;2023-08-08T07:20:37;14.80;99.90
48836;DHT22;62581;47.342;7.908;2023-08-08T07:23:04;14.90;99.90
48836;DHT22;62581;47.342;7.908;2023-08-08T07:25:33;15.00;99.90
48836;DHT22;62581;47.342;7.908;2023-08-08T07:27:59;15.00;99.90
48836;DHT22;62581;47.342;7.908;2023-08-08T07:30:26;15.00;99.90
48836;DHT22;62581;47.342;7.908;2023-08-08T07:32:53;15.10;99.90
48836;DHT22;62581;47.342;7.908;2023-08-08T07:35:20;15.10;99.90
48836;DHT22;62581;47.342;7.908;2023-08-08T07:37:46;15.30;99.90
48836;DHT22;62581;47.342;7.908;2023-08-08T07:40:14;15.40;99.90
48836;DHT22;62581;47.342;7.908;2023-08-08T07:42:42;15.50;99.90
48836;DHT22;62581;47.342;7.908;2023-08-08T07:45:09;15.80;99.90
48836;DHT22;62581;47.342;7.908;2023-08-08T07:47:35;16.00;99.90
48836;DHT22;62581;47.342;7.908;2023-08-08T07:50:02;16.20;99.90
48836;DHT22;62581;47.342;7.908;2023-08-08T07:52:29;16.40;99.90
48836;DHT22;62581;47.342;7.908;2023-08-08T07:54:56;16.50;99.90
48836;DHT22;62581;47.342;7.908;2023-08-08T07:57:23;16.60;99.90
48836;DHT22;62581;47.342;7.908;2023-08-08T07:59:52;16.60;99.90
48836;DHT22;62581;47.342;7.908;2023-08-08T08:02:18;16.60;99.90
48836;DHT22;62581;47.342;7.908;2023-08-08T08:04:45;16.60;99.90
48836;DHT22;62581;47.342;7.908;2023-08-08T08:07:12;16.60;99.90
48836;DHT22;62581;47.342;7.908;2023-08-08T08:09:38;16.60;99.90
48836;DHT22;62581;47.342;7.908;2023-08-08T08:12:07;16.70;99.90
48836;DHT22;62581;47.342;7.908;2023-08-08T08:14:34;16.80;99.90
48836;DHT22;62581;47.342;7.908;2023-08-08T08:17:03;16.90;99.90
48836;DHT22;62581;47.342;7.908;2023-08-08T08:19:29;17.00;99.90
48836;DHT22;62581;47.342;7.908;2023-08-08T08:21:56;17.10;99.90
48836;DHT22;62581;47.342;7.908;2023-08-08T08:24:23;17.30;99.90
48836;DHT22;62581;47.342;7.908;2023-08-08T08:26:50;17.40;99.90
48836;DHT22;62581;47.342;7.908;2023-08-08T08:29:17;17.40;99.90
48836;DHT22;62581;47.342;7.908;2023-08-08T08:31:44;17.50;99.90
48836;DHT22;62581;47.342;7.908;2023-08-08T08:34:12;17.60;99.90
48836;DHT22;62581;47.342;7.908;2023-08-08T08:36:39;17.60;99.90
48836;DHT22;62581;47.342;7.908;2023-08-08T08:39:06;17.60;99.90
48836;DHT22;62581;47.342;7.908;2023-08-08T08:41:32;17.60;99.90
48836;DHT22;62581;47.342;7.908;2023-08-08T08:44:01;17.70;99.90
48836;DHT22;62581;47.342;7.908;2023-08-08T08:46:29;17.70;99.90
48836;DHT22;62581;47.342;7.908;2023-08-08T08:48:56;17.70;99.90
48836;DHT22;62581;47.342;7.908;2023-08-08T08:51:26;17.60;99.90
48836;DHT22;62581;47.342;7.908;2023-08-08T08:53:53;17.50;99.90
48836;DHT22;62581;47.342;7.908;2023-08-08T08:56:20;17.40;99.90
48836;DHT22;62581;47.342;7.908;2023-08-08T08:58:48;17.30;99.90
48836;DHT22;62581;47.342;7.908;2023-08-08T09:01:15;17.20;99.90
48836;DHT22;62581;47.342;7.908;2023-08-08T09:03:43;17.20;99.90
48836;DHT22;62581;47.342;7.908;2023-08-08T09:06:10;17.20;99.90
48836;DHT22;62581;47.342;7.908;2023-08-08T09:08:39;17.30;99.90
48836;DHT22;62581;47.342;7.908;2023-08-08T09:11:06;17.30;99.90
48836;DHT22;62581;47.342;7.908;2023-08-08T09:13:39;17.30;99.90
48836;DHT22;62581;47.342;7.908;2023-08-08T09:16:06;17.40;99.90
48836;DHT22;62581;47.342;7.908;2023-08-08T09:18:33;17.50;99.90
48836;DHT22;62581;47.342;7.908;2023-08-08T09:21:03;17.60;99.90
48836;DHT22;62581;47.342;7.908;2023-08-08T09:23:30;17.70;99.90
48836;DHT22;62581;47.342;7.908;2023-08-08T09:25:58;17.70;99.90
48836;DHT22;62581;47.342;7.908;2023-08-08T09:28:25;17.80;99.90
48836;DHT22;62581;47.342;7.908;2023-08-08T09:30:52;17.80;99.90
48836;DHT22;62581;47.342;7.908;2023-08-08T09:33:19;17.90;99.90
48836;DHT22;62581;47.342;7.908;2023-08-08T09:35:46;18.00;99.90
48836;DHT22;62581;47.342;7.908;2023-08-08T09:38:12;18.10;99.90
48836;DHT22;62581;47.342;7.908;2023-08-08T09:40:39;18.20;99.90
48836;DHT22;62581;47.342;7.908;2023-08-08T09:43:08;18.40;99.90
48836;DHT22;62581;47.342;7.908;2023-08-08T09:45:35;18.70;99.90
48836;DHT22;62581;47.342;7.908;2023-08-08T09:48:03;19.00;99.90
48836;DHT22;62581;47.342;7.908;2023-08-08T09:50:30;19.30;99.90
48836;DHT22;62581;47.342;7.908;2023-08-08T09:52:58;19.50;99.90
48836;DHT22;62581;47.342;7.908;2023-08-08T09:55:25;19.60;99.90
48836;DHT22;62581;47.342;7.908;2023-08-08T09:57:51;19.50;99.90
48836;DHT22;62581;47.342;7.908;2023-08-08T10:00:20;19.60;99.90
48836;DHT22;62581;47.342;7.908;2023-08-08T10:02:47;19.80;99.90
48836;DHT22;62581;47.342;7.908;2023-08-08T10:05:14;20.00;99.90
48836;DHT22;62581;47.342;7.908;2023-08-08T10:07:42;20.20;99.90
48836;DHT22;62581;47.342;7.908;2023-08-08T10:10:09;20.00;99.90
48836;DHT22;62581;47.342;7.908;2023-08-08T10:12:36;19.90;99.90
48836;DHT22;62581;47.342;7.908;2023-08-08T10:15:04;20.00;99.90
48836;DHT22;62581;47.342;7.908;2023-08-08T10:17:36;20.30;99.90
48836;DHT22;62581;47.342;7.908;2023-08-08T10:20:04;20.60;99.90
48836;DHT22;62581;47.342;7.908;2023-08-08T10:22:36;21.00;99.90
48836;DHT22;62581;47.342;7.908;2023-08-08T10:25:04;21.10;99.90
48836;DHT22;62581;47.342;7.908;2023-08-08T10:27:31;21.40;99.90
48836;DHT22;62581;47.342;7.908;2023-08-08T10:30:02;21.70;99.90
48836;DHT22;62581;47.342;7.908;2023-08-08T10:32:37;21.80;99.90
48836;DHT22;62581;47.342;7.908;2023-08-08T10:35:06;22.20;99.90
48836;DHT22;62581;47.342;7.908;2023-08-08T10:37:32;22.50;99.90
48836;DHT22;62581;47.342;7.908;2023-08-08T10:40:00;22.50;99.90
48836;DHT22;62581;47.342;7.908;2023-08-08T10:42:31;22.70;99.90
48836;DHT22;62581;47.342;7.908;2023-08-08T10:44:58;22.60;99.90
48836;DHT22;62581;47.342;7.908;2023-08-08T10:47:26;22.70;99.90
48836;DHT22;62581;47.342;7.908;2023-08-08T10:49:56;22.80;99.90
48836;DHT22;62581;47.342;7.908;2023-08-08T10:52:25;22.70;99.90
48836;DHT22;62581;47.342;7.908;2023-08-08T10:54:52;22.70;99.90
48836;DHT22;62581;47.342;7.908;2023-08-08T10:57:20;22.80;99.90
48836;DHT22;62581;47.342;7.908;2023-08-08T10:59:47;23.10;99.90
48836;DHT22;62581;47.342;7.908;2023-08-08T11:02:14;23.30;99.90
48836;DHT22;62581;47.342;7.908;2023-08-08T11:04:41;23.50;99.90
48836;DHT22;62581;47.342;7.908;2023-08-08T11:07:07;23.70;99.90
48836;DHT22;62581;47.342;7.908;2023-08-08T11:09:36;23.80;99.90
48836;DHT22;62581;47.342;7.908;2023-08-08T11:12:03;23.50;99.90
48836;DHT22;62581;47.342;7.908;2023-08-08T11:14:30;23.20;99.90
48836;DHT22;62581;47.342;7.908;2023-08-08T11:16:57;22.90;99.90
48836;DHT22;62581;47.342;7.908;2023-08-08T11:19:23;23.00;99.90
48836;DHT22;62581;47.342;7.908;2023-08-08T11:21:50;23.10;99.90
48836;DHT22;62581;47.342;7.908;2023-08-08T11:24:17;22.70;99.90
48836;DHT22;62581;47.342;7.908;2023-08-08T11:26:45;22.70;99.90
48836;DHT22;62581;47.342;7.908;2023-08-08T11:29:12;23.10;99.90
48836;DHT22;62581;47.342;7.908;2023-08-08T11:31:39;23.50;99.90
48836;DHT22;62581;47.342;7.908;2023-08-08T11:34:06;24.00;99.90
48836;DHT22;62581;47.342;7.908;2023-08-08T11:36:35;24.30;99.90
48836;DHT22;62581;47.342;7.908;2023-08-08T11:39:03;24.40;99.90
48836;DHT22;62581;47.342;7.908;2023-08-08T11:41:33;24.70;99.50
48836;DHT22;62581;47.342;7.908;2023-08-08T11:44:02;24.70;99.10
48836;DHT22;62581;47.342;7.908;2023-08-08T11:46:28;24.90;98.70
48836;DHT22;62581;47.342;7.908;2023-08-08T11:49:01;25.20;97.50
48836;DHT22;62581;47.342;7.908;2023-08-08T11:51:28;25.50;97.30
48836;DHT22;62581;47.342;7.908;2023-08-08T11:53:55;25.70;97.10
48836;DHT22;62581;47.342;7.908;2023-08-08T11:56:22;25.50;96.90
48836;DHT22;62581;47.342;7.908;2023-08-08T11:58:49;25.20;97.30
48836;DHT22;62581;47.342;7.908;2023-08-08T12:01:17;25.30;96.70
48836;DHT22;62581;47.342;7.908;2023-08-08T12:03:46;25.50;96.80
48836;DHT22;62581;47.342;7.908;2023-08-08T12:06:12;25.50;96.00
48836;DHT22;62581;47.342;7.908;2023-08-08T12:08:40;25.60;96.00
48836;DHT22;62581;47.342;7.908;2023-08-08T12:11:08;25.70;95.60
48836;DHT22;62581;47.342;7.908;2023-08-08T12:13:34;25.90;96.30
48836;DHT22;62581;47.342;7.908;2023-08-08T12:16:05;26.00;95.80
48836;DHT22;62581;47.342;7.908;2023-08-08T12:18:33;26.00;96.10
48836;DHT22;62581;47.342;7.908;2023-08-08T12:21:00;26.10;95.90
48836;DHT22;62581;47.342;7.908;2023-08-08T12:23:27;26.00;95.10
48836;DHT22;62581;47.342;7.908;2023-08-08T12:25:54;25.60;95.90
48836;DHT22;62581;47.342;7.908;2023-08-08T12:28:21;25.40;95.70
48836;DHT22;62581;47.342;7.908;2023-08-08T12:30:48;25.30;96.20
48836;DHT22;62581;47.342;7.908;2023-08-08T12:33:14;25.60;95.60
48836;DHT22;62581;47.342;7.908;2023-08-08T12:35:42;25.80;95.30
48836;DHT22;62581;47.342;7.908;2023-08-08T12:38:09;26.40;95.90
48836;DHT22;62581;47.342;7.908;2023-08-08T12:40:36;26.60;94.10
48836;DHT22;62581;47.342;7.908;2023-08-08T12:43:03;26.60;95.20
48836;DHT22;62581;47.342;7.908;2023-08-08T12:45:30;26.80;94.70
48836;DHT22;62581;47.342;7.908;2023-08-08T12:47:57;26.10;93.70
48836;DHT22;62581;47.342;7.908;2023-08-08T12:50:24;26.20;94.20
48836;DHT22;62581;47.342;7.908;2023-08-08T12:52:52;26.50;92.90
48836;DHT22;62581;47.342;7.908;2023-08-08T12:55:19;26.80;92.00
48836;DHT22;62581;47.342;7.908;2023-08-08T12:57:45;26.70;92.90
48836;DHT22;62581;47.342;7.908;2023-08-08T13:00:13;27.10;93.60
48836;DHT22;62581;47.342;7.908;2023-08-08T13:02:40;27.00;92.90
48836;DHT22;62581;47.342;7.908;2023-08-08T13:05:07;27.40;93.30
48836;DHT22;62581;47.342;7.908;2023-08-08T13:07:35;27.60;92.50
48836;DHT22;62581;47.342;7.908;2023-08-08T13:10:03;28.00;91.50
48836;DHT22;62581;47.342;7.908;2023-08-08T13:12:30;28.90;91.00
48836;DHT22;62581;47.342;7.908;2023-08-08T13:14:57;28.50;90.20
48836;DHT22;62581;47.342;7.908;2023-08-08T13:17:24;28.40;91.10
48836;DHT22;62581;47.342;7.908;2023-08-08T13:19:50;29.30;89.80
48836;DHT22;62581;47.342;7.908;2023-08-08T13:22:17;29.60;86.80
48836;DHT22;62581;47.342;7.908;2023-08-08T13:24:44;29.50;86.50
48836;DHT22;62581;47.342;7.908;2023-08-08T13:27:12;29.30;87.40
48836;DHT22;62581;47.342;7.908;2023-08-08T13:29:39;29.30;87.40
48836;DHT22;62581;47.342;7.908;2023-08-08T13:32:06;29.30;86.60
48836;DHT22;62581;47.342;7.908;2023-08-08T13:34:32;29.50;87.50
48836;DHT22;62581;47.342;7.908;2023-08-08T13:36:59;30.00;86.30
48836;DHT22;62581;47.342;7.908;2023-08-08T13:39:26;29.80;84.50
48836;DHT22;62581;47.342;7.908;2023-08-08T13:41:53;29.60;85.90
48836;DHT22;62581;47.342;7.908;2023-08-08T13:44:21;29.40;84.90
48836;DHT22;62581;47.342;7.908;2023-08-08T13:46:48;28.70;87.00
48836;DHT22;62581;47.342;7.908;2023-08-08T13:49:14;29.10;86.80
48836;DHT22;62581;47.342;7.908;2023-08-08T13:51:41;29.20;88.20
48836;DHT22;62581;47.342;7.908;2023-08-08T13:54:09;29.90;85.70
48836;DHT22;62581;47.342;7.908;2023-08-08T13:56:36;31.10;82.90
48836;DHT22;62581;47.342;7.908;2023-08-08T13:59:02;31.30;80.00
48836;DHT22;62581;47.342;7.908;2023-08-08T14:01:31;30.80;79.80
48836;DHT22;62581;47.342;7.908;2023-08-08T14:03:58;30.10;81.20
48836;DHT22;62581;47.342;7.908;2023-08-08T14:06:25;29.60;81.90
48836;DHT22;62581;47.342;7.908;2023-08-08T14:08:52;29.10;82.70
48836;DHT22;62581;47.342;7.908;2023-08-08T14:11:19;29.00;85.10
48836;DHT22;62581;47.342;7.908;2023-08-08T14:13:46;29.00;82.10
48836;DHT22;62581;47.342;7.908;2023-08-08T14:16:12;28.70;83.00
48836;DHT22;62581;47.342;7.908;2023-08-08T14:18:40;28.40;83.40
48836;DHT22;62581;47.342;7.908;2023-08-08T14:21:07;28.00;84.50
48836;DHT22;62581;47.342;7.908;2023-08-08T14:23:34;27.60;85.30
48836;DHT22;62581;47.342;7.908;2023-08-08T14:26:01;26.70;87.30
48836;DHT22;62581;47.342;7.908;2023-08-08T14:28:27;26.90;87.30
48836;DHT22;62581;47.342;7.908;2023-08-08T14:30:54;27.80;86.40
48836;DHT22;62581;47.342;7.908;2023-08-08T14:33:21;27.80;84.10
48836;DHT22;62581;47.342;7.908;2023-08-08T14:35:49;29.60;84.00
48836;DHT22;62581;47.342;7.908;2023-08-08T14:38:16;30.80;79.60
48836;DHT22;62581;47.342;7.908;2023-08-08T14:40:43;31.60;77.30
48836;DHT22;62581;47.342;7.908;2023-08-08T14:43:10;31.80;75.00
48836;DHT22;62581;47.342;7.908;2023-08-08T14:45:37;32.60;74.90
48836;DHT22;62581;47.342;7.908;2023-08-08T14:48:03;33.40;72.60
48836;DHT22;62581;47.342;7.908;2023-08-08T14:50:30;34.10;71.10
48836;DHT22;62581;47.342;7.908;2023-08-08T14:52:58;33.60;69.70
48836;DHT22;62581;47.342;7.908;2023-08-08T14:55:25;32.50;72.70
48836;DHT22;62581;47.342;7.908;2023-08-08T14:57:52;33.70;71.40
48836;DHT22;62581;47.342;7.908;2023-08-08T15:00:19;35.20;68.80
48836;DHT22;62581;47.342;7.908;2023-08-08T15:02:46;37.10;66.40
48836;DHT22;62581;47.342;7.908;2023-08-08T15:05:12;37.10;64.90
48836;DHT22;62581;47.342;7.908;2023-08-08T15:07:39;38.30;62.20
48836;DHT22;62581;47.342;7.908;2023-08-08T15:10:08;38.60;59.30
48836;DHT22;62581;47.342;7.908;2023-08-08T15:12:35;38.40;58.50
48836;DHT22;62581;47.342;7.908;2023-08-08T15:15:01;37.30;59.80
48836;DHT22;62581;47.342;7.908;2023-08-08T15:17:29;36.90;59.70
48836;DHT22;62581;47.342;7.908;2023-08-08T15:19:56;38.20;58.90
48836;DHT22;62581;47.342;7.908;2023-08-08T15:22:23;37.70;56.90
48836;DHT22;62581;47.342;7.908;2023-08-08T15:24:49;37.90;57.90
48836;DHT22;62581;47.342;7.908;2023-08-08T15:27:18;38.40;56.50
48836;DHT22;62581;47.342;7.908;2023-08-08T15:29:44;37.10;57.80